Accord, NY (12404)

2:05 PM EDT on August 24, 2016 (GMT -0400)
Kelder's Farm | | Change Station

Elev 266 ft 41.79 °N, 74.26 °W | Updated 29 seconds ago

Clear
Clear
84.3 °F
Feels Like 87 °F
N
5.0
Wind Variable Wind from WNW
Gusts 9.0 mph

Today
High -- | Low -- °F
--% Chance of Precip.
Yesterday
High -- | Low -- °F
Precip. -- in
Pressure 30.21 in
Visibility 10.0 miles
Clouds Clear
Heat Index 87 °F
Dew Point 66 °F
Humidity 55%
Rainfall 0.00 in
Snow Depth Not available.
6:15 AM 7:42 PM
Waning Gibbous, 55% visible
METAR KMGJ 241754Z AUTO 21010KT 10SM CLR 29/18 A3021 RMK AO2 SLP228 T02890178 10289 20167 56021 TSNO
Pressure 30.21 in
Visibility 10.0 miles
Clouds Clear
Heat Index 87 °F
Dew Point 66 °F
Humidity 55%
Rainfall 0.00 in
Snow Depth Not available.
6:15 AM 7:42 PM
Waning Gibbous, 55% visible
METAR KMGJ 241754Z AUTO 21010KT 10SM CLR 29/18 A3021 RMK AO2 SLP228 T02890178 10289 20167 56021 TSNO

10-Day Weather Forecast

Almanac

Astronomy

Aug. 24, 2016 Rise Set
Actual Time
Civil Twilight
Nautical Twilight
Astronomical Twilight
Moon
Length of Visible Light
Length of Day
Tomorrow will be .
, % of the Moon is Illuminated

Today's Extremes

State Highs State Lows

Community

WunderPhotos

Upload Photos

1,934,662 photos uploaded!

WunderBlog® & News

Nearby

Air Quality

  Air Quality AQ Index Pollutant
Not available.

Snow Depth

Station Depth Elevation

Earthquake Activity

City Distance Mag. Time & Date
Minimum magnitude displayed is 2.5.

Coastal Water Temperatures

Place Temperature

Stations

Nearby Weather Stations

Station Location Temp. Windchill Dew Point Humidity Wind Precip. Elev Updated Type
                   

Watches & Warnings

There are currently no watches in effect.